Main page
METAR-TAF:

METAR-TAF

Airports :

Johnson County Executive Airport

Olathe, Kansas, United States

latitude: 38-51-00N, longitude: 094-44-21W, elevation: 1096 ft

Current weather observation

The report was made 58 minutes ago, at 05:53 UTC
Calm wind
Temperature 43°F
Humidity 61%
Pressure 30.20 in. Hg
Visibility: 10 miles
Clear sky

METAR: KOJC 220553Z AUTO 00000KT 10SM CLR 06/M01 A3020 RMK AO2 SLP229 T00561011 10150 20050 401500033 57009

Time: 01:51 (06:51 UTC)


TAF: missing

Weather observations and forecasts of more than 4000 airports (METAR and TAF reports).

The available stations are represented by yellow and red dots on the map.

Hover mouse over dot to see the name of the station.

Then click to see weather observations and forecasts.

To change the map : click on the green buttons with a black cross to zoom in, on the green button with a dash to zoom out, or on the green arrows for adjacent maps.


METAR-TAF: